GLO2005 SBEG-SBGL
Flight info
| Callsign | GLO2005 |
|---|---|
| Flight time | 3h 41m |
| Altitude | 37000 |
| Route | GIKVI UZ6 MULUV UZ24 MAVGU |
| Aircraft | B738/M-SDFGIKLORWXY/LB1 |
Departure
| Time | 2026-04-20 15:43 |
|---|---|
| Airport | Eduardo Gomes International Airport (SBEG) |
Arrival
| Time | 2026-04-20 19:24 |
|---|---|
| Airport | Rio Galeão – Tom Jobim International Airport (SBGL) |
| Time | Latitude | Longitude | Altitude | Speed | Heading |
|---|---|---|---|---|---|
| 2026-04-20 15:21 | -3.03272 | -60.04581 | 269 ft | 0 kts | 356° |
| 2026-04-20 15:35 | -3.03289 | -60.04580 | 269 ft | 4 kts | 353° |
| 2026-04-20 15:35 | -3.03316 | -60.04575 | 269 ft | 4 kts | 343° |
| 2026-04-20 15:35 | -3.03340 | -60.04565 | 269 ft | 4 kts | 322° |
| 2026-04-20 15:35 | -3.03353 | -60.04547 | 269 ft | 2 kts | 267° |
| 2026-04-20 15:36 | -3.03352 | -60.04540 | 269 ft | 0 kts | 265° |
| 2026-04-20 15:37 | -3.03352 | -60.04541 | 269 ft | 0 kts | 265° |
| 2026-04-20 15:38 | -3.03353 | -60.04545 | 269 ft | 1 kts | 265° |
| 2026-04-20 15:38 | -3.03354 | -60.04555 | 269 ft | 2 kts | 265° |
| 2026-04-20 15:38 | -3.03355 | -60.04572 | 269 ft | 3 kts | 265° |
| 2026-04-20 15:38 | -3.03356 | -60.04608 | 269 ft | 7 kts | 270° |
| 2026-04-20 15:39 | -3.03353 | -60.04665 | 269 ft | 10 kts | 272° |
| 2026-04-20 15:39 | -3.03362 | -60.04742 | 269 ft | 13 kts | 254° |
| 2026-04-20 15:39 | -3.03409 | -60.04825 | 269 ft | 15 kts | 227° |
| 2026-04-20 15:39 | -3.03496 | -60.04896 | 269 ft | 17 kts | 219° |
| 2026-04-20 15:40 | -3.03574 | -60.04994 | 269 ft | 19 kts | 244° |
| 2026-04-20 15:40 | -3.03613 | -60.05125 | 269 ft | 20 kts | 255° |
| 2026-04-20 15:40 | -3.03647 | -60.05255 | 269 ft | 19 kts | 255° |
| 2026-04-20 15:40 | -3.03676 | -60.05381 | 269 ft | 18 kts | 260° |
| 2026-04-20 15:41 | -3.03690 | -60.05512 | 269 ft | 20 kts | 268° |
| 2026-04-20 15:41 | -3.03690 | -60.05657 | 269 ft | 22 kts | 270° |
| 2026-04-20 15:41 | -3.03690 | -60.05812 | 269 ft | 23 kts | 270° |
| 2026-04-20 15:41 | -3.03690 | -60.05968 | 269 ft | 22 kts | 270° |
| 2026-04-20 15:42 | -3.03697 | -60.06119 | 269 ft | 21 kts | 251° |
| 2026-04-20 15:42 | -3.03818 | -60.06166 | 270 ft | 20 kts | 161° |
| 2026-04-20 15:42 | -3.03858 | -60.06071 | 270 ft | 12 kts | 90° |
| 2026-04-20 15:42 | -3.03858 | -60.05937 | 270 ft | 44 kts | 90° |
| 2026-04-20 15:43 | -3.03860 | -60.05395 | 268 ft | 110 kts | 90° |
| 2026-04-20 15:43 | -3.03863 | -60.04445 | 286 ft | 162 kts | 90° |
| 2026-04-20 15:43 | -3.03880 | -60.03266 | 920 ft | 176 kts | 90° |
| 2026-04-20 15:43 | -3.03900 | -60.02059 | 2114 ft | 170 kts | 91° |
| 2026-04-20 15:44 | -3.04170 | -60.00858 | 2939 ft | 195 kts | 123° |
| 2026-04-20 15:44 | -3.05281 | -59.99906 | 3254 ft | 229 kts | 146° |
| 2026-04-20 15:44 | -3.06683 | -59.99018 | 3720 ft | 249 kts | 146° |
| 2026-04-20 15:44 | -3.08207 | -59.98051 | 4177 ft | 265 kts | 146° |
| 2026-04-20 15:45 | -3.09782 | -59.97037 | 5025 ft | 270 kts | 146° |
| 2026-04-20 15:45 | -3.11352 | -59.96012 | 5947 ft | 270 kts | 145° |
| 2026-04-20 15:45 | -3.12947 | -59.94959 | 6666 ft | 276 kts | 145° |
| 2026-04-20 15:45 | -3.14551 | -59.93890 | 7438 ft | 279 kts | 145° |
| 2026-04-20 15:46 | -3.16167 | -59.92807 | 8212 ft | 281 kts | 146° |
| 2026-04-20 15:46 | -3.17801 | -59.91708 | 8923 ft | 286 kts | 146° |
| 2026-04-20 15:46 | -3.19463 | -59.90587 | 9665 ft | 290 kts | 146° |
| 2026-04-20 15:46 | -3.21142 | -59.89451 | 10371 ft | 294 kts | 147° |
| 2026-04-20 15:47 | -3.22899 | -59.88263 | 10566 ft | 318 kts | 147° |
| 2026-04-20 15:47 | -3.24771 | -59.86996 | 10746 ft | 339 kts | 146° |
| 2026-04-20 15:47 | -3.26766 | -59.85644 | 11125 ft | 353 kts | 146° |
| 2026-04-20 15:47 | -3.28816 | -59.84253 | 11767 ft | 357 kts | 147° |
| 2026-04-20 15:48 | -3.30874 | -59.82856 | 12429 ft | 360 kts | 147° |
| 2026-04-20 15:48 | -3.32961 | -59.81440 | 12992 ft | 365 kts | 147° |
| 2026-04-20 15:48 | -3.35077 | -59.80003 | 13595 ft | 369 kts | 147° |
| 2026-04-20 15:48 | -3.37213 | -59.78554 | 14172 ft | 372 kts | 147° |
| 2026-04-20 15:49 | -3.39357 | -59.77097 | 14739 ft | 374 kts | 147° |
| 2026-04-20 15:49 | -3.41517 | -59.75631 | 15304 ft | 376 kts | 147° |
| 2026-04-20 15:49 | -3.43697 | -59.74151 | 15861 ft | 379 kts | 147° |
| 2026-04-20 15:49 | -3.45143 | -59.73169 | 16225 ft | 381 kts | 147° |
| 2026-04-20 15:50 | -3.47345 | -59.71673 | 16765 ft | 384 kts | 147° |
| 2026-04-20 15:50 | -3.49561 | -59.70168 | 17304 ft | 386 kts | 147° |
| 2026-04-20 15:50 | -3.51794 | -59.68653 | 17838 ft | 389 kts | 147° |
| 2026-04-20 15:50 | -3.54013 | -59.67097 | 18341 ft | 391 kts | 143° |
| 2026-04-20 15:51 | -3.56117 | -59.65346 | 18762 ft | 395 kts | 139° |
| 2026-04-20 15:51 | -3.58158 | -59.63487 | 19170 ft | 398 kts | 138° |
| 2026-04-20 15:51 | -3.60183 | -59.61592 | 19576 ft | 401 kts | 137° |
| 2026-04-20 15:51 | -3.62229 | -59.59677 | 20001 ft | 403 kts | 137° |
| 2026-04-20 15:52 | -3.64294 | -59.57760 | 20422 ft | 406 kts | 138° |
| 2026-04-20 15:52 | -3.66381 | -59.55842 | 20840 ft | 408 kts | 138° |
| 2026-04-20 15:52 | -3.68483 | -59.53925 | 21238 ft | 411 kts | 138° |
| 2026-04-20 15:53 | -3.72719 | -59.50086 | 22026 ft | 415 kts | 138° |
| 2026-04-20 15:53 | -3.74867 | -59.48144 | 22407 ft | 418 kts | 138° |
| 2026-04-20 15:53 | -3.77034 | -59.46187 | 22783 ft | 420 kts | 138° |
| 2026-04-20 15:53 | -3.79207 | -59.44224 | 23158 ft | 422 kts | 138° |
| 2026-04-20 15:54 | -3.81397 | -59.42245 | 23532 ft | 424 kts | 138° |
| 2026-04-20 15:54 | -3.83598 | -59.40256 | 23805 ft | 427 kts | 138° |
| 2026-04-20 15:54 | -3.85810 | -59.38257 | 24099 ft | 429 kts | 138° |
| 2026-04-20 15:54 | -3.88028 | -59.36252 | 24448 ft | 429 kts | 137° |
| 2026-04-20 15:55 | -3.90247 | -59.34246 | 24733 ft | 432 kts | 137° |
| 2026-04-20 15:55 | -3.92486 | -59.32222 | 24969 ft | 435 kts | 137° |
| 2026-04-20 15:55 | -3.94737 | -59.30187 | 25269 ft | 436 kts | 137° |
| 2026-04-20 15:55 | -3.96992 | -59.28148 | 25556 ft | 438 kts | 137° |
| 2026-04-20 15:56 | -3.99256 | -59.26101 | 25826 ft | 440 kts | 137° |
| 2026-04-20 15:56 | -4.01533 | -59.24041 | 26092 ft | 442 kts | 137° |
| 2026-04-20 15:56 | -4.03820 | -59.21972 | 26349 ft | 444 kts | 137° |
| 2026-04-20 15:56 | -4.06113 | -59.19898 | 26601 ft | 446 kts | 137° |
| 2026-04-20 15:57 | -4.08395 | -59.17834 | 26857 ft | 447 kts | 137° |
| 2026-04-20 15:57 | -4.10706 | -59.15744 | 27116 ft | 449 kts | 137° |
| 2026-04-20 15:57 | -4.13029 | -59.13642 | 27377 ft | 450 kts | 137° |
| 2026-04-20 15:57 | -4.15358 | -59.11535 | 27627 ft | 452 kts | 137° |
| 2026-04-20 15:58 | -4.17698 | -59.09418 | 27867 ft | 454 kts | 137° |
| 2026-04-20 15:58 | -4.20045 | -59.07293 | 28106 ft | 455 kts | 137° |
| 2026-04-20 15:58 | -4.22395 | -59.05166 | 28342 ft | 457 kts | 137° |
| 2026-04-20 15:58 | -4.24758 | -59.03028 | 28576 ft | 458 kts | 137° |
| 2026-04-20 15:59 | -4.27122 | -59.00888 | 28803 ft | 459 kts | 137° |
| 2026-04-20 15:59 | -4.29496 | -58.98739 | 29026 ft | 461 kts | 137° |
| 2026-04-20 15:59 | -4.31880 | -58.96580 | 29242 ft | 462 kts | 136° |
| 2026-04-20 15:59 | -4.34266 | -58.94420 | 29460 ft | 463 kts | 136° |
| 2026-04-20 16:00 | -4.36663 | -58.92249 | 29662 ft | 465 kts | 136° |
| 2026-04-20 16:00 | -4.39073 | -58.90067 | 29888 ft | 466 kts | 136° |
| 2026-04-20 16:00 | -4.41480 | -58.87886 | 30126 ft | 466 kts | 136° |
| 2026-04-20 16:00 | -4.43877 | -58.85715 | 30404 ft | 464 kts | 136° |
| 2026-04-20 16:01 | -4.46271 | -58.83547 | 30693 ft | 463 kts | 136° |
| 2026-04-20 16:01 | -4.48626 | -58.81413 | 30965 ft | 461 kts | 136° |
| 2026-04-20 16:01 | -4.51034 | -58.79230 | 31221 ft | 461 kts | 136° |
| 2026-04-20 16:01 | -4.53382 | -58.77103 | 31480 ft | 460 kts | 136° |
| 2026-04-20 16:02 | -4.55751 | -58.74956 | 31771 ft | 459 kts | 136° |
| 2026-04-20 16:02 | -4.58116 | -58.72811 | 32053 ft | 457 kts | 136° |
| 2026-04-20 16:02 | -4.60469 | -58.70675 | 32342 ft | 456 kts | 136° |
| 2026-04-20 16:02 | -4.62820 | -58.68539 | 32638 ft | 455 kts | 136° |
| 2026-04-20 16:03 | -4.65163 | -58.66408 | 32945 ft | 454 kts | 136° |
| 2026-04-20 16:03 | -4.67495 | -58.64289 | 33234 ft | 452 kts | 136° |
| 2026-04-20 16:03 | -4.69826 | -58.62169 | 33513 ft | 452 kts | 136° |
| 2026-04-20 16:03 | -4.72148 | -58.60057 | 33801 ft | 451 kts | 135° |
| 2026-04-20 16:04 | -4.74470 | -58.57946 | 34085 ft | 449 kts | 135° |
| 2026-04-20 16:04 | -4.76779 | -58.55846 | 34329 ft | 448 kts | 136° |
| 2026-04-20 16:04 | -4.79091 | -58.53743 | 34527 ft | 448 kts | 135° |
| 2026-04-20 16:04 | -4.81406 | -58.51637 | 34727 ft | 448 kts | 136° |
| 2026-04-20 16:05 | -4.83712 | -58.49539 | 34951 ft | 448 kts | 136° |
| 2026-04-20 16:05 | -4.86018 | -58.47442 | 35188 ft | 447 kts | 136° |
| 2026-04-20 16:05 | -4.88286 | -58.45378 | 35400 ft | 446 kts | 136° |
| 2026-04-20 16:05 | -4.90587 | -58.43284 | 35603 ft | 446 kts | 136° |
| 2026-04-20 16:06 | -4.92885 | -58.41193 | 35815 ft | 445 kts | 136° |
| 2026-04-20 16:06 | -4.95174 | -58.39110 | 36032 ft | 444 kts | 136° |
| 2026-04-20 16:06 | -4.97465 | -58.37024 | 36222 ft | 444 kts | 136° |
| 2026-04-20 16:06 | -4.99750 | -58.34944 | 36394 ft | 444 kts | 136° |
| 2026-04-20 16:07 | -5.02033 | -58.32865 | 36613 ft | 443 kts | 136° |
| 2026-04-20 16:07 | -5.04322 | -58.30781 | 36819 ft | 443 kts | 136° |
| 2026-04-20 16:07 | -5.06598 | -58.28708 | 36970 ft | 443 kts | 136° |
| 2026-04-20 16:07 | -5.08888 | -58.26622 | 36958 ft | 445 kts | 136° |
| 2026-04-20 16:08 | -5.13472 | -58.22447 | 36971 ft | 443 kts | 136° |
| 2026-04-20 16:08 | -5.17994 | -58.18326 | 36971 ft | 440 kts | 136° |
| 2026-04-20 16:09 | -5.22513 | -58.14209 | 36972 ft | 438 kts | 136° |
| 2026-04-20 16:09 | -5.27028 | -58.10133 | 36973 ft | 436 kts | 136° |
| 2026-04-20 16:10 | -5.31542 | -58.06079 | 36972 ft | 435 kts | 136° |
| 2026-04-20 16:10 | -5.36055 | -58.02021 | 36974 ft | 436 kts | 136° |
| 2026-04-20 16:11 | -5.40576 | -57.97951 | 36979 ft | 437 kts | 136° |
| 2026-04-20 16:11 | -5.45119 | -57.93858 | 36976 ft | 440 kts | 136° |
| 2026-04-20 16:12 | -5.49657 | -57.89768 | 36983 ft | 442 kts | 136° |
| 2026-04-20 16:12 | -5.54242 | -57.85636 | 36983 ft | 444 kts | 136° |
| 2026-04-20 16:13 | -5.58849 | -57.81483 | 36986 ft | 446 kts | 136° |
| 2026-04-20 16:13 | -5.63479 | -57.77307 | 36983 ft | 448 kts | 136° |
| 2026-04-20 16:14 | -5.68121 | -57.73120 | 36979 ft | 449 kts | 136° |
| 2026-04-20 16:14 | -5.72770 | -57.68927 | 36980 ft | 449 kts | 136° |
| 2026-04-20 16:15 | -5.77419 | -57.64732 | 36977 ft | 449 kts | 136° |
| 2026-04-20 16:15 | -5.82045 | -57.60557 | 36977 ft | 449 kts | 136° |
| 2026-04-20 16:16 | -5.86682 | -57.56371 | 36973 ft | 448 kts | 136° |
| 2026-04-20 16:16 | -5.91306 | -57.52196 | 36974 ft | 447 kts | 136° |
| 2026-04-20 16:17 | -5.95922 | -57.48027 | 36982 ft | 446 kts | 136° |
| 2026-04-20 16:17 | -6.00535 | -57.43859 | 36978 ft | 445 kts | 136° |
| 2026-04-20 16:18 | -6.05141 | -57.39697 | 36976 ft | 444 kts | 136° |
| 2026-04-20 16:18 | -6.09738 | -57.35543 | 36970 ft | 444 kts | 136° |
| 2026-04-20 16:19 | -6.14326 | -57.31395 | 36969 ft | 444 kts | 136° |
| 2026-04-20 16:19 | -6.18892 | -57.27266 | 36972 ft | 443 kts | 136° |
| 2026-04-20 16:20 | -6.23480 | -57.23116 | 36973 ft | 444 kts | 136° |
| 2026-04-20 16:20 | -6.28072 | -57.18962 | 36975 ft | 444 kts | 136° |
| 2026-04-20 16:21 | -6.32660 | -57.14810 | 36973 ft | 444 kts | 136° |
| 2026-04-20 16:21 | -6.37249 | -57.10656 | 36967 ft | 444 kts | 136° |
| 2026-04-20 16:22 | -6.41841 | -57.06499 | 36971 ft | 444 kts | 136° |
| 2026-04-20 16:22 | -6.46435 | -57.02338 | 36973 ft | 445 kts | 136° |
| 2026-04-20 16:23 | -6.51040 | -56.98167 | 36965 ft | 445 kts | 136° |
| 2026-04-20 16:23 | -6.55640 | -56.94000 | 36970 ft | 445 kts | 136° |
| 2026-04-20 16:24 | -6.60241 | -56.89829 | 36969 ft | 445 kts | 136° |
| 2026-04-20 16:24 | -6.64817 | -56.85680 | 36967 ft | 445 kts | 136° |
| 2026-04-20 16:25 | -6.69420 | -56.81507 | 36969 ft | 445 kts | 136° |
| 2026-04-20 16:25 | -6.74025 | -56.77330 | 36972 ft | 445 kts | 136° |
| 2026-04-20 16:26 | -6.78629 | -56.73153 | 36963 ft | 445 kts | 136° |
| 2026-04-20 16:26 | -6.83228 | -56.68980 | 36965 ft | 445 kts | 136° |
| 2026-04-20 16:27 | -6.87831 | -56.64801 | 36967 ft | 445 kts | 137° |
| 2026-04-20 16:27 | -6.92404 | -56.60649 | 36967 ft | 445 kts | 136° |
| 2026-04-20 16:28 | -6.97001 | -56.56473 | 36963 ft | 445 kts | 137° |
| 2026-04-20 16:28 | -7.01599 | -56.52296 | 36963 ft | 445 kts | 137° |
| 2026-04-20 16:29 | -7.06197 | -56.48117 | 36965 ft | 445 kts | 137° |
| 2026-04-20 16:29 | -7.10797 | -56.43936 | 36963 ft | 445 kts | 137° |
| 2026-04-20 16:30 | -7.15402 | -56.39748 | 36962 ft | 446 kts | 137° |
| 2026-04-20 16:30 | -7.20003 | -56.35562 | 36964 ft | 446 kts | 137° |
| 2026-04-20 16:31 | -7.24581 | -56.31396 | 36957 ft | 446 kts | 137° |
| 2026-04-20 16:31 | -7.29185 | -56.27206 | 36963 ft | 446 kts | 136° |
| 2026-04-20 16:32 | -7.33793 | -56.23011 | 36960 ft | 446 kts | 137° |
| 2026-04-20 16:32 | -7.38394 | -56.18819 | 36958 ft | 445 kts | 137° |
| 2026-04-20 16:33 | -7.42984 | -56.14634 | 36959 ft | 445 kts | 136° |
| 2026-04-20 16:33 | -7.47568 | -56.10454 | 36958 ft | 444 kts | 136° |
| 2026-04-20 16:34 | -7.52146 | -56.06278 | 36960 ft | 444 kts | 136° |
| 2026-04-20 16:34 | -7.56721 | -56.02103 | 36961 ft | 444 kts | 136° |
| 2026-04-20 16:35 | -7.61270 | -55.97951 | 36959 ft | 444 kts | 136° |
| 2026-04-20 16:35 | -7.65852 | -55.93768 | 36963 ft | 444 kts | 136° |
| 2026-04-20 16:36 | -7.70431 | -55.89586 | 36963 ft | 444 kts | 136° |
| 2026-04-20 16:36 | -7.75016 | -55.85397 | 36960 ft | 445 kts | 136° |
| 2026-04-20 16:37 | -7.79610 | -55.81199 | 36959 ft | 446 kts | 136° |
| 2026-04-20 16:37 | -7.84211 | -55.76993 | 36962 ft | 446 kts | 136° |
| 2026-04-20 16:38 | -7.88030 | -55.73501 | 36957 ft | 446 kts | 136° |
| 2026-04-20 16:38 | -7.92634 | -55.69290 | 36957 ft | 447 kts | 136° |
| 2026-04-20 16:39 | -7.97253 | -55.65064 | 36956 ft | 447 kts | 136° |
| 2026-04-20 16:39 | -8.01863 | -55.60844 | 36957 ft | 448 kts | 136° |
| 2026-04-20 16:40 | -8.06479 | -55.56619 | 36958 ft | 447 kts | 136° |
| 2026-04-20 16:40 | -8.11062 | -55.52421 | 36957 ft | 447 kts | 137° |
| 2026-04-20 16:41 | -8.15670 | -55.48200 | 36955 ft | 447 kts | 137° |
| 2026-04-20 16:41 | -8.20274 | -55.43980 | 36958 ft | 447 kts | 137° |
| 2026-04-20 16:42 | -8.24877 | -55.39761 | 36953 ft | 447 kts | 137° |
| 2026-04-20 16:42 | -8.29477 | -55.35542 | 36958 ft | 447 kts | 137° |
| 2026-04-20 16:43 | -8.34077 | -55.31323 | 36954 ft | 447 kts | 137° |
| 2026-04-20 16:43 | -8.38680 | -55.27099 | 36959 ft | 447 kts | 137° |
| 2026-04-20 16:44 | -8.43276 | -55.22880 | 36957 ft | 447 kts | 137° |
| 2026-04-20 16:44 | -8.47883 | -55.18650 | 36955 ft | 447 kts | 137° |
| 2026-04-20 16:45 | -8.52461 | -55.14444 | 36960 ft | 447 kts | 137° |
| 2026-04-20 16:45 | -8.57065 | -55.10214 | 36957 ft | 448 kts | 137° |
| 2026-04-20 16:46 | -8.61685 | -55.05967 | 36959 ft | 449 kts | 137° |
| 2026-04-20 16:46 | -8.66306 | -55.01718 | 36952 ft | 449 kts | 137° |
| 2026-04-20 16:47 | -8.70942 | -54.97454 | 36955 ft | 450 kts | 137° |
| 2026-04-20 16:47 | -8.75536 | -54.93227 | 36958 ft | 449 kts | 137° |
| 2026-04-20 16:48 | -8.80160 | -54.88971 | 36957 ft | 449 kts | 137° |
| 2026-04-20 16:48 | -8.84774 | -54.84722 | 36956 ft | 448 kts | 137° |
| 2026-04-20 16:49 | -8.89383 | -54.80476 | 36958 ft | 448 kts | 137° |
| 2026-04-20 16:49 | -8.93986 | -54.76234 | 36956 ft | 447 kts | 137° |
| 2026-04-20 16:50 | -8.98588 | -54.71992 | 36961 ft | 447 kts | 137° |
| 2026-04-20 16:50 | -9.03186 | -54.67752 | 36961 ft | 447 kts | 137° |
| 2026-04-20 16:51 | -9.07779 | -54.63514 | 36955 ft | 446 kts | 137° |
| 2026-04-20 16:51 | -9.12366 | -54.59280 | 36958 ft | 446 kts | 137° |
| 2026-04-20 16:52 | -9.16926 | -54.55071 | 36954 ft | 446 kts | 137° |
| 2026-04-20 16:52 | -9.21404 | -54.50713 | 36957 ft | 446 kts | 135° |
| 2026-04-20 16:53 | -9.25789 | -54.46268 | 36957 ft | 446 kts | 134° |
| 2026-04-20 16:53 | -9.30180 | -54.41832 | 36954 ft | 447 kts | 135° |
| 2026-04-20 16:54 | -9.34599 | -54.37396 | 36949 ft | 447 kts | 135° |
| 2026-04-20 16:54 | -9.39020 | -54.32968 | 36949 ft | 447 kts | 135° |
| 2026-04-20 16:55 | -9.43448 | -54.28533 | 36957 ft | 447 kts | 135° |
| 2026-04-20 16:55 | -9.47871 | -54.24100 | 36953 ft | 447 kts | 135° |
| 2026-04-20 16:56 | -9.52271 | -54.19689 | 36951 ft | 448 kts | 135° |
| 2026-04-20 16:56 | -9.56701 | -54.15245 | 36952 ft | 448 kts | 135° |
| 2026-04-20 16:57 | -9.61137 | -54.10794 | 36948 ft | 448 kts | 135° |
| 2026-04-20 16:57 | -9.65569 | -54.06345 | 36947 ft | 448 kts | 135° |
| 2026-04-20 16:58 | -9.69966 | -54.01928 | 36944 ft | 448 kts | 135° |
| 2026-04-20 16:58 | -9.74393 | -53.97480 | 36947 ft | 448 kts | 135° |
| 2026-04-20 16:59 | -9.78829 | -53.93022 | 36950 ft | 448 kts | 135° |
| 2026-04-20 16:59 | -9.83252 | -53.88573 | 36945 ft | 448 kts | 135° |
| 2026-04-20 17:00 | -9.89925 | -53.81955 | 36939 ft | 447 kts | 137° |
| 2026-04-20 17:01 | -9.94504 | -53.77694 | 36945 ft | 446 kts | 137° |
| 2026-04-20 17:01 | -9.99090 | -53.73438 | 36935 ft | 446 kts | 137° |
| 2026-04-20 17:02 | -10.03618 | -53.69202 | 36938 ft | 445 kts | 137° |
| 2026-04-20 17:02 | -10.08166 | -53.64928 | 36933 ft | 445 kts | 137° |
| 2026-04-20 17:03 | -10.12700 | -53.60664 | 36943 ft | 444 kts | 137° |
| 2026-04-20 17:03 | -10.17228 | -53.56405 | 36944 ft | 444 kts | 137° |
| 2026-04-20 17:04 | -10.21761 | -53.52141 | 36937 ft | 444 kts | 137° |
| 2026-04-20 17:04 | -10.26286 | -53.47881 | 36936 ft | 443 kts | 137° |
| 2026-04-20 17:05 | -10.30809 | -53.43622 | 36936 ft | 444 kts | 137° |
| 2026-04-20 17:05 | -10.35334 | -53.39359 | 36940 ft | 444 kts | 137° |
| 2026-04-20 17:06 | -10.39861 | -53.35089 | 36938 ft | 444 kts | 137° |
| 2026-04-20 17:06 | -10.44386 | -53.30813 | 36933 ft | 445 kts | 137° |
| 2026-04-20 17:07 | -10.48898 | -53.26546 | 36936 ft | 446 kts | 137° |
| 2026-04-20 17:07 | -10.53448 | -53.22242 | 36938 ft | 447 kts | 137° |
| 2026-04-20 17:08 | -10.58002 | -53.17932 | 36932 ft | 448 kts | 137° |
| 2026-04-20 17:08 | -10.62569 | -53.13609 | 36939 ft | 448 kts | 137° |
| 2026-04-20 17:09 | -10.67145 | -53.09276 | 36934 ft | 449 kts | 137° |
| 2026-04-20 17:09 | -10.71719 | -53.04942 | 36938 ft | 450 kts | 137° |
| 2026-04-20 17:10 | -10.76268 | -53.00629 | 36937 ft | 450 kts | 137° |
| 2026-04-20 17:10 | -10.80849 | -52.96285 | 36938 ft | 450 kts | 137° |
| 2026-04-20 17:11 | -10.85463 | -52.91908 | 36932 ft | 450 kts | 137° |
| 2026-04-20 17:11 | -10.90006 | -52.87595 | 36931 ft | 450 kts | 137° |
| 2026-04-20 17:12 | -10.94578 | -52.83254 | 36931 ft | 449 kts | 137° |
| 2026-04-20 17:12 | -10.99149 | -52.78912 | 36933 ft | 449 kts | 137° |
| 2026-04-20 17:13 | -11.03705 | -52.74582 | 36931 ft | 448 kts | 137° |
| 2026-04-20 17:13 | -11.08260 | -52.70250 | 36927 ft | 447 kts | 137° |
| 2026-04-20 17:14 | -11.12801 | -52.65931 | 36934 ft | 446 kts | 138° |
| 2026-04-20 17:14 | -11.17336 | -52.61615 | 36932 ft | 446 kts | 138° |
| 2026-04-20 17:15 | -11.21840 | -52.57326 | 36931 ft | 445 kts | 138° |
| 2026-04-20 17:15 | -11.26366 | -52.53015 | 36928 ft | 445 kts | 138° |
| 2026-04-20 17:16 | -11.30891 | -52.48703 | 36929 ft | 445 kts | 138° |
| 2026-04-20 17:16 | -11.35420 | -52.44385 | 36933 ft | 445 kts | 138° |
| 2026-04-20 17:17 | -11.39950 | -52.40063 | 36927 ft | 446 kts | 138° |
| 2026-04-20 17:17 | -11.44474 | -52.35746 | 36934 ft | 445 kts | 138° |
| 2026-04-20 17:18 | -11.48979 | -52.31444 | 36933 ft | 446 kts | 138° |
| 2026-04-20 17:18 | -11.53517 | -52.27112 | 36927 ft | 447 kts | 139° |
| 2026-04-20 17:19 | -11.58195 | -52.22959 | 36926 ft | 446 kts | 141° |
| 2026-04-20 17:19 | -11.62962 | -52.18887 | 36921 ft | 447 kts | 141° |
| 2026-04-20 17:20 | -11.67718 | -52.14796 | 36936 ft | 447 kts | 141° |
| 2026-04-20 17:20 | -11.72458 | -52.10682 | 36921 ft | 448 kts | 141° |
| 2026-04-20 17:21 | -11.77197 | -52.06554 | 36918 ft | 448 kts | 141° |
| 2026-04-20 17:21 | -11.81908 | -52.02447 | 36923 ft | 448 kts | 141° |
| 2026-04-20 17:22 | -11.86644 | -51.98317 | 36926 ft | 448 kts | 141° |
| 2026-04-20 17:22 | -11.91382 | -51.94184 | 36924 ft | 448 kts | 141° |
| 2026-04-20 17:23 | -11.96119 | -51.90050 | 36922 ft | 447 kts | 141° |
| 2026-04-20 17:23 | -12.00849 | -51.85921 | 36921 ft | 447 kts | 141° |
| 2026-04-20 17:24 | -12.05580 | -51.81788 | 36921 ft | 447 kts | 141° |
| 2026-04-20 17:24 | -12.10308 | -51.77656 | 36918 ft | 447 kts | 141° |
| 2026-04-20 17:25 | -12.15027 | -51.73530 | 36918 ft | 446 kts | 141° |
| 2026-04-20 17:25 | -12.19715 | -51.69429 | 36927 ft | 446 kts | 141° |
| 2026-04-20 17:26 | -12.24430 | -51.65302 | 36923 ft | 446 kts | 141° |
| 2026-04-20 17:26 | -12.28350 | -51.61870 | 36922 ft | 446 kts | 141° |
| 2026-04-20 17:27 | -12.33052 | -51.57751 | 36921 ft | 445 kts | 141° |
| 2026-04-20 17:27 | -12.38529 | -51.52950 | 36912 ft | 445 kts | 141° |
| 2026-04-20 17:28 | -12.42469 | -51.49495 | 36921 ft | 445 kts | 141° |
| 2026-04-20 17:28 | -12.47143 | -51.45392 | 36915 ft | 445 kts | 141° |
| 2026-04-20 17:29 | -12.51846 | -51.41265 | 36906 ft | 445 kts | 141° |
| 2026-04-20 17:29 | -12.56462 | -51.37039 | 36918 ft | 446 kts | 139° |
| 2026-04-20 17:30 | -12.60983 | -51.32672 | 36916 ft | 446 kts | 139° |
| 2026-04-20 17:30 | -12.65495 | -51.28312 | 36909 ft | 446 kts | 139° |
| 2026-04-20 17:31 | -12.70018 | -51.23974 | 36898 ft | 445 kts | 139° |
| 2026-04-20 17:31 | -12.74545 | -51.19645 | 36913 ft | 445 kts | 139° |
| 2026-04-20 17:32 | -12.79073 | -51.15315 | 36908 ft | 445 kts | 139° |
| 2026-04-20 17:32 | -12.83605 | -51.10979 | 36910 ft | 445 kts | 139° |
| 2026-04-20 17:33 | -12.88108 | -51.06667 | 36918 ft | 446 kts | 139° |
| 2026-04-20 17:33 | -12.92639 | -51.02326 | 36918 ft | 446 kts | 140° |
| 2026-04-20 17:34 | -12.97177 | -50.97976 | 36908 ft | 446 kts | 140° |
| 2026-04-20 17:34 | -13.01715 | -50.93625 | 36924 ft | 447 kts | 140° |
| 2026-04-20 17:35 | -13.06256 | -50.89266 | 36907 ft | 447 kts | 140° |
| 2026-04-20 17:35 | -13.10803 | -50.84902 | 36919 ft | 448 kts | 140° |
| 2026-04-20 17:36 | -13.15354 | -50.80530 | 36924 ft | 448 kts | 140° |
| 2026-04-20 17:36 | -13.19900 | -50.76159 | 36906 ft | 448 kts | 140° |
| 2026-04-20 17:37 | -13.24446 | -50.71788 | 36911 ft | 448 kts | 140° |
| 2026-04-20 17:37 | -13.28965 | -50.67439 | 36913 ft | 448 kts | 140° |
| 2026-04-20 17:38 | -13.33509 | -50.63066 | 36908 ft | 448 kts | 140° |
| 2026-04-20 17:38 | -13.38055 | -50.58690 | 36909 ft | 447 kts | 140° |
| 2026-04-20 17:39 | -13.42595 | -50.54316 | 36914 ft | 447 kts | 140° |
| 2026-04-20 17:39 | -13.47129 | -50.49945 | 36916 ft | 447 kts | 140° |
| 2026-04-20 17:40 | -13.51662 | -50.45572 | 36912 ft | 447 kts | 140° |
| 2026-04-20 17:40 | -13.56209 | -50.41183 | 36906 ft | 447 kts | 140° |
| 2026-04-20 17:41 | -13.60713 | -50.36833 | 36911 ft | 447 kts | 140° |
| 2026-04-20 17:41 | -13.65250 | -50.32449 | 36908 ft | 447 kts | 140° |
| 2026-04-20 17:42 | -13.69784 | -50.28066 | 36907 ft | 447 kts | 141° |
| 2026-04-20 17:42 | -13.74315 | -50.23682 | 36908 ft | 447 kts | 141° |
| 2026-04-20 17:43 | -13.78854 | -50.19289 | 36900 ft | 447 kts | 141° |
| 2026-04-20 17:43 | -13.83392 | -50.14894 | 36903 ft | 448 kts | 141° |
| 2026-04-20 17:44 | -13.87902 | -50.10524 | 36903 ft | 448 kts | 141° |
| 2026-04-20 17:44 | -13.92438 | -50.06126 | 36903 ft | 448 kts | 141° |
| 2026-04-20 17:45 | -13.96971 | -50.01728 | 36900 ft | 448 kts | 141° |
| 2026-04-20 17:45 | -14.01516 | -49.97317 | 36903 ft | 449 kts | 141° |
| 2026-04-20 17:46 | -14.06068 | -49.92896 | 36903 ft | 449 kts | 141° |
| 2026-04-20 17:46 | -14.10615 | -49.88477 | 36903 ft | 449 kts | 141° |
| 2026-04-20 17:47 | -14.15139 | -49.84079 | 36896 ft | 450 kts | 141° |
| 2026-04-20 17:47 | -14.19688 | -49.79653 | 36896 ft | 450 kts | 141° |
| 2026-04-20 17:48 | -14.24249 | -49.75213 | 36892 ft | 450 kts | 141° |
| 2026-04-20 17:48 | -14.28808 | -49.70772 | 36890 ft | 451 kts | 141° |
| 2026-04-20 17:49 | -14.33368 | -49.66328 | 36891 ft | 451 kts | 141° |
| 2026-04-20 17:49 | -14.37929 | -49.61881 | 36892 ft | 451 kts | 141° |
| 2026-04-20 17:50 | -14.42457 | -49.57462 | 36898 ft | 451 kts | 141° |
| 2026-04-20 17:50 | -14.47019 | -49.53009 | 36900 ft | 451 kts | 141° |
| 2026-04-20 17:51 | -14.51578 | -49.48555 | 36902 ft | 451 kts | 141° |
| 2026-04-20 17:51 | -14.56145 | -49.44090 | 36908 ft | 452 kts | 141° |
| 2026-04-20 17:52 | -14.60702 | -49.39633 | 36912 ft | 451 kts | 141° |
| 2026-04-20 17:52 | -14.65239 | -49.35193 | 36917 ft | 451 kts | 141° |
| 2026-04-20 17:53 | -14.69795 | -49.30731 | 36921 ft | 451 kts | 141° |
| 2026-04-20 17:53 | -14.74357 | -49.26261 | 36912 ft | 451 kts | 141° |
| 2026-04-20 17:54 | -14.78914 | -49.21793 | 36912 ft | 451 kts | 141° |
| 2026-04-20 17:54 | -14.83467 | -49.17326 | 36917 ft | 451 kts | 141° |
| 2026-04-20 17:55 | -14.88022 | -49.12855 | 36920 ft | 451 kts | 141° |
| 2026-04-20 17:55 | -14.92544 | -49.08413 | 36918 ft | 451 kts | 142° |
| 2026-04-20 17:56 | -14.97094 | -49.03941 | 36920 ft | 451 kts | 141° |
| 2026-04-20 17:56 | -15.01645 | -48.99463 | 36929 ft | 451 kts | 141° |
| 2026-04-20 17:57 | -15.06194 | -48.94987 | 36918 ft | 451 kts | 141° |
| 2026-04-20 17:57 | -15.10732 | -48.90485 | 36923 ft | 452 kts | 141° |
| 2026-04-20 17:58 | -15.15237 | -48.85948 | 36926 ft | 452 kts | 141° |
| 2026-04-20 17:58 | -15.19746 | -48.81398 | 36926 ft | 452 kts | 141° |
| 2026-04-20 17:59 | -15.24224 | -48.76884 | 36932 ft | 452 kts | 141° |
| 2026-04-20 17:59 | -15.28728 | -48.72345 | 36922 ft | 452 kts | 141° |
| 2026-04-20 18:00 | -15.33234 | -48.67802 | 36926 ft | 451 kts | 141° |
| 2026-04-20 18:00 | -15.37732 | -48.63265 | 36929 ft | 451 kts | 141° |
| 2026-04-20 18:01 | -15.42234 | -48.58720 | 36938 ft | 451 kts | 141° |
| 2026-04-20 18:01 | -15.46739 | -48.54170 | 36924 ft | 452 kts | 141° |
| 2026-04-20 18:02 | -15.51248 | -48.49613 | 36933 ft | 452 kts | 141° |
| 2026-04-20 18:02 | -15.55725 | -48.45086 | 36935 ft | 452 kts | 141° |
| 2026-04-20 18:03 | -15.60258 | -48.40498 | 36941 ft | 453 kts | 141° |
| 2026-04-20 18:03 | -15.64737 | -48.35962 | 36958 ft | 453 kts | 141° |
| 2026-04-20 18:04 | -15.69251 | -48.31388 | 36944 ft | 453 kts | 141° |
| 2026-04-20 18:04 | -15.73659 | -48.26917 | 36941 ft | 453 kts | 141° |
| 2026-04-20 18:05 | -15.80406 | -48.20069 | 37003 ft | 452 kts | 141° |
| 2026-04-20 18:05 | -15.84893 | -48.15512 | 37035 ft | 451 kts | 142° |
| 2026-04-20 18:06 | -15.89393 | -48.10940 | 37053 ft | 451 kts | 142° |
| 2026-04-20 18:06 | -15.93870 | -48.06386 | 37067 ft | 451 kts | 142° |
| 2026-04-20 18:07 | -15.98322 | -48.01855 | 37073 ft | 450 kts | 142° |
| 2026-04-20 18:07 | -16.02800 | -47.97295 | 37061 ft | 450 kts | 142° |
| 2026-04-20 18:08 | -16.07276 | -47.92734 | 37045 ft | 450 kts | 142° |
| 2026-04-20 18:08 | -16.11750 | -47.88172 | 37017 ft | 450 kts | 142° |
| 2026-04-20 18:09 | -16.16226 | -47.83605 | 36990 ft | 451 kts | 142° |
| 2026-04-20 18:09 | -16.20705 | -47.79031 | 36947 ft | 451 kts | 142° |
| 2026-04-20 18:10 | -16.25157 | -47.74482 | 36943 ft | 451 kts | 142° |
| 2026-04-20 18:10 | -16.29639 | -47.69899 | 36948 ft | 451 kts | 142° |
| 2026-04-20 18:11 | -16.34116 | -47.65318 | 36942 ft | 451 kts | 142° |
| 2026-04-20 18:11 | -16.38599 | -47.60727 | 36943 ft | 451 kts | 142° |
| 2026-04-20 18:12 | -16.43074 | -47.56142 | 36951 ft | 451 kts | 142° |
| 2026-04-20 18:12 | -16.47544 | -47.51546 | 36952 ft | 451 kts | 141° |
| 2026-04-20 18:13 | -16.51978 | -47.46971 | 36949 ft | 451 kts | 141° |
| 2026-04-20 18:13 | -16.56434 | -47.42369 | 36947 ft | 451 kts | 141° |
| 2026-04-20 18:14 | -16.60887 | -47.37769 | 36952 ft | 451 kts | 141° |
| 2026-04-20 18:14 | -16.65338 | -47.33169 | 36946 ft | 450 kts | 141° |
| 2026-04-20 18:15 | -16.69063 | -47.29316 | 36952 ft | 450 kts | 141° |
| 2026-04-20 18:15 | -16.73482 | -47.24742 | 36943 ft | 450 kts | 141° |
| 2026-04-20 18:16 | -16.77926 | -47.20139 | 36951 ft | 450 kts | 142° |
| 2026-04-20 18:16 | -16.82372 | -47.15531 | 36950 ft | 449 kts | 141° |
| 2026-04-20 18:17 | -16.86818 | -47.10961 | 36942 ft | 448 kts | 143° |
| 2026-04-20 18:17 | -16.91381 | -47.06561 | 36937 ft | 446 kts | 144° |
| 2026-04-20 18:18 | -16.95926 | -47.02221 | 36945 ft | 445 kts | 144° |
| 2026-04-20 18:18 | -17.00482 | -46.97830 | 36933 ft | 445 kts | 143° |
| 2026-04-20 18:19 | -17.05022 | -46.93430 | 36938 ft | 445 kts | 143° |
| 2026-04-20 18:19 | -17.09554 | -46.89033 | 36932 ft | 444 kts | 143° |
| 2026-04-20 18:20 | -17.14089 | -46.84634 | 36941 ft | 444 kts | 143° |
| 2026-04-20 18:20 | -17.18850 | -46.80616 | 36932 ft | 434 kts | 155° |
| 2026-04-20 18:21 | -17.24058 | -46.77443 | 36926 ft | 432 kts | 156° |
| 2026-04-20 18:21 | -17.29248 | -46.74341 | 36932 ft | 433 kts | 156° |
| 2026-04-20 18:22 | -17.34468 | -46.71178 | 36929 ft | 433 kts | 156° |
| 2026-04-20 18:22 | -17.39671 | -46.67994 | 36926 ft | 433 kts | 155° |
| 2026-04-20 18:23 | -17.44871 | -46.64800 | 36930 ft | 433 kts | 155° |
| 2026-04-20 18:23 | -17.50074 | -46.61602 | 36926 ft | 433 kts | 155° |
| 2026-04-20 18:24 | -17.55270 | -46.58408 | 36922 ft | 433 kts | 155° |
| 2026-04-20 18:24 | -17.60470 | -46.55209 | 36930 ft | 433 kts | 155° |
| 2026-04-20 18:25 | -17.65666 | -46.52011 | 36932 ft | 433 kts | 155° |
| 2026-04-20 18:25 | -17.70857 | -46.48813 | 36933 ft | 433 kts | 155° |
| 2026-04-20 18:26 | -17.76020 | -46.45631 | 36938 ft | 432 kts | 155° |
| 2026-04-20 18:26 | -17.81212 | -46.42428 | 36936 ft | 432 kts | 155° |
| 2026-04-20 18:27 | -17.86392 | -46.39231 | 36943 ft | 432 kts | 155° |
| 2026-04-20 18:27 | -17.91568 | -46.36035 | 36956 ft | 431 kts | 155° |
| 2026-04-20 18:28 | -17.96740 | -46.32837 | 36957 ft | 431 kts | 155° |
| 2026-04-20 18:28 | -18.01915 | -46.29637 | 36953 ft | 431 kts | 155° |
| 2026-04-20 18:29 | -18.07048 | -46.26459 | 36953 ft | 431 kts | 154° |
| 2026-04-20 18:29 | -18.12215 | -46.23259 | 36961 ft | 430 kts | 154° |
| 2026-04-20 18:30 | -18.17373 | -46.20061 | 36967 ft | 430 kts | 154° |
| 2026-04-20 18:30 | -18.22526 | -46.16866 | 36968 ft | 430 kts | 154° |
| 2026-04-20 18:31 | -18.27638 | -46.13691 | 36974 ft | 429 kts | 154° |
| 2026-04-20 18:31 | -18.32784 | -46.10491 | 36977 ft | 429 kts | 154° |
| 2026-04-20 18:32 | -18.37924 | -46.07292 | 36976 ft | 429 kts | 154° |
| 2026-04-20 18:32 | -18.43067 | -46.04089 | 36976 ft | 429 kts | 154° |
| 2026-04-20 18:33 | -18.48199 | -46.00890 | 36980 ft | 429 kts | 154° |
| 2026-04-20 18:33 | -18.53335 | -45.97687 | 36980 ft | 429 kts | 154° |
| 2026-04-20 18:34 | -18.58464 | -45.94486 | 36983 ft | 428 kts | 154° |
| 2026-04-20 18:34 | -18.63593 | -45.91282 | 36980 ft | 428 kts | 154° |
| 2026-04-20 18:35 | -18.68715 | -45.88081 | 36981 ft | 428 kts | 154° |
| 2026-04-20 18:35 | -18.73837 | -45.84877 | 36984 ft | 428 kts | 154° |
| 2026-04-20 18:36 | -18.78964 | -45.81667 | 36985 ft | 428 kts | 154° |
| 2026-04-20 18:36 | -18.84085 | -45.78466 | 36980 ft | 427 kts | 154° |
| 2026-04-20 18:37 | -18.89229 | -45.75331 | 36980 ft | 427 kts | 154° |
| 2026-04-20 18:37 | -18.94381 | -45.72212 | 36977 ft | 427 kts | 154° |
| 2026-04-20 18:38 | -18.99498 | -45.69103 | 36986 ft | 426 kts | 154° |
| 2026-04-20 18:38 | -19.04638 | -45.65971 | 36981 ft | 426 kts | 154° |
| 2026-04-20 18:39 | -19.09773 | -45.62839 | 36977 ft | 426 kts | 154° |
| 2026-04-20 18:39 | -19.14908 | -45.59704 | 36969 ft | 426 kts | 154° |
| 2026-04-20 18:40 | -19.20046 | -45.56565 | 36970 ft | 426 kts | 154° |
| 2026-04-20 18:40 | -19.25177 | -45.53428 | 36970 ft | 426 kts | 154° |
| 2026-04-20 18:41 | -19.30310 | -45.50287 | 36975 ft | 426 kts | 154° |
| 2026-04-20 18:41 | -19.35449 | -45.47138 | 36964 ft | 426 kts | 154° |
| 2026-04-20 18:42 | -19.40543 | -45.44001 | 36961 ft | 426 kts | 154° |
| 2026-04-20 18:42 | -19.45675 | -45.40835 | 36971 ft | 426 kts | 154° |
| 2026-04-20 18:43 | -19.50797 | -45.37675 | 36966 ft | 426 kts | 154° |
| 2026-04-20 18:43 | -19.55927 | -45.34507 | 36963 ft | 427 kts | 154° |
| 2026-04-20 18:44 | -19.61056 | -45.31339 | 36964 ft | 426 kts | 154° |
| 2026-04-20 18:44 | -19.66183 | -45.28168 | 36962 ft | 426 kts | 153° |
| 2026-04-20 18:45 | -19.71300 | -45.25002 | 36966 ft | 426 kts | 153° |
| 2026-04-20 18:45 | -19.76384 | -45.21853 | 36974 ft | 426 kts | 153° |
| 2026-04-20 18:46 | -19.81497 | -45.18684 | 36975 ft | 425 kts | 153° |
| 2026-04-20 18:46 | -19.86615 | -45.15513 | 36970 ft | 425 kts | 153° |
| 2026-04-20 18:47 | -19.91747 | -45.12364 | 36980 ft | 425 kts | 154° |
| 2026-04-20 18:47 | -19.96875 | -45.09224 | 36978 ft | 425 kts | 153° |
| 2026-04-20 18:48 | -20.01998 | -45.06081 | 36979 ft | 424 kts | 153° |
| 2026-04-20 18:48 | -20.07108 | -45.02942 | 36975 ft | 424 kts | 153° |
| 2026-04-20 18:49 | -20.12186 | -44.99818 | 36978 ft | 424 kts | 153° |
| 2026-04-20 18:49 | -20.17292 | -44.96675 | 36977 ft | 424 kts | 153° |
| 2026-04-20 18:50 | -20.22399 | -44.93529 | 36984 ft | 423 kts | 153° |
| 2026-04-20 18:50 | -20.27491 | -44.90390 | 36985 ft | 423 kts | 153° |
| 2026-04-20 18:51 | -20.32590 | -44.87244 | 36983 ft | 423 kts | 153° |
| 2026-04-20 18:51 | -20.37681 | -44.84100 | 36986 ft | 423 kts | 153° |
| 2026-04-20 18:52 | -20.42769 | -44.80956 | 36992 ft | 423 kts | 153° |
| 2026-04-20 18:52 | -20.47838 | -44.77821 | 36993 ft | 423 kts | 153° |
| 2026-04-20 18:53 | -20.52899 | -44.74595 | 36999 ft | 424 kts | 152° |
| 2026-04-20 18:53 | -20.57908 | -44.71276 | 37003 ft | 424 kts | 152° |
| 2026-04-20 18:54 | -20.62937 | -44.67949 | 37000 ft | 425 kts | 152° |
| 2026-04-20 18:54 | -20.67966 | -44.64635 | 37000 ft | 424 kts | 152° |
| 2026-04-20 18:55 | -20.72991 | -44.61326 | 37005 ft | 424 kts | 152° |
| 2026-04-20 18:55 | -20.78012 | -44.58018 | 37001 ft | 424 kts | 152° |
| 2026-04-20 18:56 | -20.83052 | -44.54761 | 37001 ft | 422 kts | 153° |
| 2026-04-20 18:56 | -20.88111 | -44.51587 | 37004 ft | 421 kts | 153° |
| 2026-04-20 18:57 | -20.93137 | -44.48419 | 36592 ft | 425 kts | 153° |
| 2026-04-20 18:57 | -20.95668 | -44.46817 | 36243 ft | 420 kts | 153° |
| 2026-04-20 18:57 | -20.98171 | -44.45230 | 35807 ft | 416 kts | 153° |
| 2026-04-20 18:58 | -21.00659 | -44.43666 | 35357 ft | 414 kts | 153° |
| 2026-04-20 18:58 | -21.03139 | -44.42117 | 34936 ft | 411 kts | 154° |
| 2026-04-20 18:58 | -21.05604 | -44.40576 | 34494 ft | 410 kts | 154° |
| 2026-04-20 18:58 | -21.08058 | -44.39040 | 34066 ft | 408 kts | 153° |
| 2026-04-20 18:59 | -21.10506 | -44.37494 | 33564 ft | 407 kts | 153° |
| 2026-04-20 18:59 | -21.12927 | -44.35955 | 33133 ft | 404 kts | 153° |
| 2026-04-20 18:59 | -21.15342 | -44.34417 | 32706 ft | 401 kts | 152° |
| 2026-04-20 18:59 | -21.17733 | -44.32896 | 32300 ft | 399 kts | 152° |
| 2026-04-20 19:00 | -21.20113 | -44.31382 | 31890 ft | 396 kts | 152° |
| 2026-04-20 19:00 | -21.22474 | -44.29881 | 31488 ft | 394 kts | 152° |
| 2026-04-20 19:00 | -21.24819 | -44.28387 | 31087 ft | 391 kts | 151° |
| 2026-04-20 19:00 | -21.27151 | -44.26885 | 30681 ft | 389 kts | 150° |
| 2026-04-20 19:01 | -21.29437 | -44.25408 | 30286 ft | 388 kts | 150° |
| 2026-04-20 19:01 | -21.31741 | -44.23917 | 29860 ft | 386 kts | 150° |
| 2026-04-20 19:01 | -21.34027 | -44.22437 | 29399 ft | 383 kts | 150° |
| 2026-04-20 19:01 | -21.36300 | -44.20966 | 28968 ft | 380 kts | 150° |
| 2026-04-20 19:02 | -21.38555 | -44.19507 | 28547 ft | 377 kts | 150° |
| 2026-04-20 19:02 | -21.40787 | -44.18063 | 28131 ft | 374 kts | 150° |
| 2026-04-20 19:02 | -21.43007 | -44.16626 | 27730 ft | 371 kts | 150° |
| 2026-04-20 19:02 | -21.45211 | -44.15200 | 27329 ft | 368 kts | 150° |
| 2026-04-20 19:03 | -21.47396 | -44.13786 | 26936 ft | 366 kts | 150° |
| 2026-04-20 19:03 | -21.49571 | -44.12380 | 26546 ft | 364 kts | 150° |
| 2026-04-20 19:03 | -21.51725 | -44.10987 | 26145 ft | 362 kts | 150° |
| 2026-04-20 19:03 | -21.53877 | -44.09595 | 25748 ft | 360 kts | 150° |
| 2026-04-20 19:04 | -21.55992 | -44.08226 | 25347 ft | 359 kts | 150° |
| 2026-04-20 19:04 | -21.57438 | -44.07298 | 25078 ft | 358 kts | 152° |
| 2026-04-20 19:04 | -21.60363 | -44.05684 | 24538 ft | 355 kts | 156° |
| 2026-04-20 19:04 | -21.62597 | -44.04561 | 24153 ft | 354 kts | 156° |
| 2026-04-20 19:05 | -21.64834 | -44.03449 | 23758 ft | 354 kts | 156° |
| 2026-04-20 19:05 | -21.67067 | -44.02331 | 23316 ft | 353 kts | 156° |
| 2026-04-20 19:05 | -21.68562 | -44.01575 | 23030 ft | 352 kts | 156° |
| 2026-04-20 19:05 | -21.70763 | -44.00454 | 22626 ft | 349 kts | 156° |
| 2026-04-20 19:06 | -21.72950 | -43.99334 | 22233 ft | 347 kts | 156° |
| 2026-04-20 19:06 | -21.75097 | -43.98230 | 21847 ft | 345 kts | 156° |
| 2026-04-20 19:06 | -21.77280 | -43.97107 | 21471 ft | 342 kts | 156° |
| 2026-04-20 19:06 | -21.79422 | -43.96004 | 21095 ft | 340 kts | 156° |
| 2026-04-20 19:07 | -21.81555 | -43.94905 | 20715 ft | 339 kts | 156° |
| 2026-04-20 19:07 | -21.83641 | -43.93831 | 20354 ft | 337 kts | 156° |
| 2026-04-20 19:07 | -21.85780 | -43.92728 | 19977 ft | 335 kts | 156° |
| 2026-04-20 19:07 | -21.87853 | -43.91660 | 19606 ft | 334 kts | 156° |
| 2026-04-20 19:08 | -21.89949 | -43.90580 | 19235 ft | 334 kts | 156° |
| 2026-04-20 19:08 | -21.94153 | -43.88410 | 18462 ft | 333 kts | 156° |
| 2026-04-20 19:08 | -21.96206 | -43.87351 | 18082 ft | 330 kts | 156° |
| 2026-04-20 19:09 | -21.98272 | -43.86284 | 17709 ft | 328 kts | 156° |
| 2026-04-20 19:09 | -22.00331 | -43.85220 | 17320 ft | 327 kts | 156° |
| 2026-04-20 19:09 | -22.02372 | -43.84165 | 16995 ft | 321 kts | 156° |
| 2026-04-20 19:09 | -22.04358 | -43.83138 | 16568 ft | 315 kts | 156° |
| 2026-04-20 19:10 | -22.06328 | -43.82120 | 15963 ft | 314 kts | 156° |
| 2026-04-20 19:10 | -22.08299 | -43.81101 | 15386 ft | 314 kts | 156° |
| 2026-04-20 19:10 | -22.10258 | -43.80088 | 14850 ft | 311 kts | 156° |
| 2026-04-20 19:10 | -22.12205 | -43.79081 | 14333 ft | 310 kts | 156° |
| 2026-04-20 19:11 | -22.14144 | -43.78076 | 13806 ft | 308 kts | 156° |
| 2026-04-20 19:11 | -22.16070 | -43.77078 | 13225 ft | 306 kts | 157° |
| 2026-04-20 19:11 | -22.17981 | -43.76089 | 12693 ft | 303 kts | 156° |
| 2026-04-20 19:11 | -22.19875 | -43.75108 | 12146 ft | 301 kts | 157° |
| 2026-04-20 19:12 | -22.21753 | -43.74133 | 11600 ft | 299 kts | 157° |
| 2026-04-20 19:12 | -22.23628 | -43.73161 | 11069 ft | 298 kts | 157° |
| 2026-04-20 19:12 | -22.25488 | -43.72196 | 10581 ft | 296 kts | 157° |
| 2026-04-20 19:12 | -22.27327 | -43.71241 | 10282 ft | 287 kts | 158° |
| 2026-04-20 19:13 | -22.29109 | -43.70316 | 10101 ft | 281 kts | 157° |
| 2026-04-20 19:13 | -22.30835 | -43.69420 | 9878 ft | 279 kts | 157° |
| 2026-04-20 19:13 | -22.32585 | -43.68513 | 9568 ft | 278 kts | 158° |
| 2026-04-20 19:13 | -22.34329 | -43.67608 | 9273 ft | 278 kts | 158° |
| 2026-04-20 19:14 | -22.36068 | -43.66704 | 8988 ft | 277 kts | 157° |
| 2026-04-20 19:14 | -22.37810 | -43.65801 | 8681 ft | 278 kts | 158° |
| 2026-04-20 19:14 | -22.39551 | -43.64896 | 8392 ft | 278 kts | 157° |
| 2026-04-20 19:14 | -22.41289 | -43.63991 | 8094 ft | 277 kts | 157° |
| 2026-04-20 19:15 | -22.43032 | -43.63084 | 7802 ft | 277 kts | 158° |
| 2026-04-20 19:15 | -22.44766 | -43.62183 | 7510 ft | 276 kts | 157° |
| 2026-04-20 19:15 | -22.46498 | -43.61283 | 7208 ft | 275 kts | 157° |
| 2026-04-20 19:15 | -22.48217 | -43.60384 | 6925 ft | 275 kts | 157° |
| 2026-04-20 19:16 | -22.49942 | -43.59486 | 6641 ft | 274 kts | 157° |
| 2026-04-20 19:16 | -22.51661 | -43.58595 | 6338 ft | 275 kts | 157° |
| 2026-04-20 19:16 | -22.53364 | -43.57709 | 6042 ft | 275 kts | 157° |
| 2026-04-20 19:16 | -22.55086 | -43.56811 | 5752 ft | 273 kts | 157° |
| 2026-04-20 19:17 | -22.56765 | -43.55931 | 5452 ft | 264 kts | 156° |
| 2026-04-20 19:17 | -22.58386 | -43.55080 | 5190 ft | 254 kts | 156° |
| 2026-04-20 19:17 | -22.59952 | -43.54262 | 4915 ft | 246 kts | 156° |
| 2026-04-20 19:17 | -22.61466 | -43.53468 | 4702 ft | 238 kts | 156° |
| 2026-04-20 19:18 | -22.62962 | -43.52687 | 4433 ft | 241 kts | 156° |
| 2026-04-20 19:18 | -22.64414 | -43.51720 | 4152 ft | 253 kts | 137° |
| 2026-04-20 19:18 | -22.65502 | -43.50206 | 3908 ft | 255 kts | 126° |
| 2026-04-20 19:18 | -22.66498 | -43.48649 | 3799 ft | 247 kts | 129° |
| 2026-04-20 19:19 | -22.67519 | -43.47179 | 3705 ft | 242 kts | 129° |
| 2026-04-20 19:19 | -22.68510 | -43.45729 | 3589 ft | 237 kts | 129° |
| 2026-04-20 19:19 | -22.69460 | -43.44297 | 3470 ft | 230 kts | 128° |
| 2026-04-20 19:19 | -22.70374 | -43.42907 | 3374 ft | 223 kts | 129° |
| 2026-04-20 19:20 | -22.71266 | -43.41547 | 3282 ft | 217 kts | 128° |
| 2026-04-20 19:20 | -22.72122 | -43.40241 | 3016 ft | 213 kts | 128° |
| 2026-04-20 19:20 | -22.72968 | -43.38953 | 2722 ft | 205 kts | 129° |
| 2026-04-20 19:20 | -22.73781 | -43.37719 | 2481 ft | 198 kts | 129° |
| 2026-04-20 19:21 | -22.74559 | -43.36534 | 2241 ft | 187 kts | 129° |
| 2026-04-20 19:21 | -22.75295 | -43.35415 | 1999 ft | 178 kts | 128° |
| 2026-04-20 19:21 | -22.75987 | -43.34359 | 1764 ft | 166 kts | 129° |
| 2026-04-20 19:21 | -22.76629 | -43.33381 | 1570 ft | 151 kts | 129° |
| 2026-04-20 19:22 | -22.77237 | -43.32464 | 1368 ft | 150 kts | 129° |
| 2026-04-20 19:22 | -22.77843 | -43.31540 | 1179 ft | 150 kts | 129° |
| 2026-04-20 19:22 | -22.78438 | -43.30634 | 957 ft | 144 kts | 127° |
| 2026-04-20 19:22 | -22.79016 | -43.29756 | 796 ft | 145 kts | 128° |
| 2026-04-20 19:23 | -22.79606 | -43.28859 | 625 ft | 145 kts | 129° |
| 2026-04-20 19:23 | -22.80186 | -43.27977 | 426 ft | 142 kts | 129° |
| 2026-04-20 19:23 | -22.80769 | -43.27087 | 252 ft | 146 kts | 130° |
| 2026-04-20 19:23 | -22.81346 | -43.26192 | 59 ft | 143 kts | 131° |
| 2026-04-20 19:24 | -22.81878 | -43.25413 | 23 ft | 97 kts | 126° |
| 2026-04-20 19:24 | -22.82127 | -43.25038 | 22 ft | 51 kts | 125° |
| 2026-04-20 19:24 | -22.82264 | -43.24827 | 19 ft | 30 kts | 124° |
| 2026-04-20 19:24 | -22.82344 | -43.24650 | 19 ft | 21 kts | 104° |
| 2026-04-20 19:25 | -22.82357 | -43.24562 | 19 ft | 9 kts | 93° |
| 2026-04-20 19:25 | -22.82364 | -43.24496 | 18 ft | 9 kts | 98° |
| 2026-04-20 19:25 | -22.82332 | -43.24459 | 18 ft | 9 kts | 345° |
| 2026-04-20 19:25 | -22.82291 | -43.24511 | 18 ft | 10 kts | 305° |
| 2026-04-20 19:26 | -22.82246 | -43.24580 | 21 ft | 12 kts | 305° |
| 2026-04-20 19:26 | -22.82189 | -43.24664 | 18 ft | 15 kts | 303° |
| 2026-04-20 19:26 | -22.82125 | -43.24759 | 21 ft | 15 kts | 306° |
| 2026-04-20 19:26 | -22.82065 | -43.24852 | 22 ft | 15 kts | 304° |
| 2026-04-20 19:27 | -22.82005 | -43.24944 | 22 ft | 16 kts | 306° |
| 2026-04-20 19:27 | -22.81936 | -43.25048 | 23 ft | 18 kts | 305° |
| 2026-04-20 19:27 | -22.81863 | -43.25159 | 27 ft | 19 kts | 305° |
| 2026-04-20 19:27 | -22.81771 | -43.25251 | 22 ft | 17 kts | 6° |
| 2026-04-20 19:28 | -22.81673 | -43.25184 | 21 ft | 16 kts | 35° |
| 2026-04-20 19:28 | -22.81581 | -43.25115 | 22 ft | 16 kts | 34° |
| 2026-04-20 19:28 | -22.81494 | -43.25047 | 21 ft | 13 kts | 44° |
| 2026-04-20 19:28 | -22.81484 | -43.24963 | 21 ft | 11 kts | 80° |
| 2026-04-20 19:29 | -22.81431 | -43.24909 | 21 ft | 11 kts | 9° |
| 2026-04-20 19:29 | -22.81398 | -43.24859 | 21 ft | 9 kts | 86° |
| 2026-04-20 19:29 | -22.81397 | -43.24832 | 21 ft | 0 kts | 88° |